sensor_id;sensor_type;location;lat;lon;timestamp;temperature;humidity
56538;DHT22;42435;53.292;6.000;2022-08-19T00:01:44;16.70;77.10
56538;DHT22;42435;53.292;6.000;2022-08-19T00:04:12;16.70;77.40
56538;DHT22;42435;53.292;6.000;2022-08-19T00:06:39;16.70;77.50
56538;DHT22;42435;53.292;6.000;2022-08-19T00:09:07;16.70;77.80
56538;DHT22;42435;53.292;6.000;2022-08-19T00:11:34;16.80;77.90
56538;DHT22;42435;53.292;6.000;2022-08-19T00:14:01;16.80;78.00
56538;DHT22;42435;53.292;6.000;2022-08-19T00:16:26;16.80;77.90
56538;DHT22;42435;53.292;6.000;2022-08-19T00:18:53;16.70;78.00
56538;DHT22;42435;53.292;6.000;2022-08-19T00:21:21;16.70;78.20
56538;DHT22;42435;53.292;6.000;2022-08-19T00:23:46;16.70;78.20
56538;DHT22;42435;53.292;6.000;2022-08-19T00:26:12;16.70;78.20
56538;DHT22;42435;53.292;6.000;2022-08-19T00:28:37;16.70;78.20
56538;DHT22;42435;53.292;6.000;2022-08-19T00:31:04;16.70;78.20
56538;DHT22;42435;53.292;6.000;2022-08-19T00:33:31;16.60;77.80
56538;DHT22;42435;53.292;6.000;2022-08-19T00:36:00;16.50;78.10
56538;DHT22;42435;53.292;6.000;2022-08-19T00:38:26;16.60;78.40
56538;DHT22;42435;53.292;6.000;2022-08-19T00:40:53;16.50;78.50
56538;DHT22;42435;53.292;6.000;2022-08-19T00:43:21;16.50;78.60
56538;DHT22;42435;53.292;6.000;2022-08-19T00:45:47;16.60;78.40
56538;DHT22;42435;53.292;6.000;2022-08-19T00:48:14;16.50;78.40
56538;DHT22;42435;53.292;6.000;2022-08-19T00:50:40;16.50;78.70
56538;DHT22;42435;53.292;6.000;2022-08-19T00:53:09;16.50;78.70
56538;DHT22;42435;53.292;6.000;2022-08-19T00:55:36;16.50;78.70
56538;DHT22;42435;53.292;6.000;2022-08-19T00:58:07;16.50;78.80
56538;DHT22;42435;53.292;6.000;2022-08-19T01:00:33;16.50;78.90
56538;DHT22;42435;53.292;6.000;2022-08-19T01:03:05;16.50;78.80
56538;DHT22;42435;53.292;6.000;2022-08-19T01:05:32;16.50;78.80
56538;DHT22;42435;53.292;6.000;2022-08-19T01:08:01;16.50;78.80
56538;DHT22;42435;53.292;6.000;2022-08-19T01:10:31;16.50;79.20
56538;DHT22;42435;53.292;6.000;2022-08-19T01:12:58;16.50;79.10
56538;DHT22;42435;53.292;6.000;2022-08-19T01:15:31;16.50;78.90
56538;DHT22;42435;53.292;6.000;2022-08-19T01:18:00;16.50;79.00
56538;DHT22;42435;53.292;6.000;2022-08-19T01:20:26;16.50;79.00
56538;DHT22;42435;53.292;6.000;2022-08-19T01:22:54;16.50;78.90
56538;DHT22;42435;53.292;6.000;2022-08-19T01:25:24;16.40;78.80
56538;DHT22;42435;53.292;6.000;2022-08-19T01:27:53;16.40;78.70
56538;DHT22;42435;53.292;6.000;2022-08-19T01:30:31;16.40;78.70
56538;DHT22;42435;53.292;6.000;2022-08-19T01:32:57;16.40;78.80
56538;DHT22;42435;53.292;6.000;2022-08-19T01:35:29;16.80;78.20
56538;DHT22;42435;53.292;6.000;2022-08-19T01:38:08;16.60;78.30
56538;DHT22;42435;53.292;6.000;2022-08-19T01:40:38;16.50;78.50
56538;DHT22;42435;53.292;6.000;2022-08-19T01:43:05;16.40;78.80
56538;DHT22;42435;53.292;6.000;2022-08-19T01:45:32;16.40;79.00
56538;DHT22;42435;53.292;6.000;2022-08-19T01:47:59;16.30;79.00
56538;DHT22;42435;53.292;6.000;2022-08-19T01:50:25;16.30;79.20
56538;DHT22;42435;53.292;6.000;2022-08-19T01:52:51;16.30;79.30
56538;DHT22;42435;53.292;6.000;2022-08-19T01:55:20;16.40;79.20
56538;DHT22;42435;53.292;6.000;2022-08-19T01:57:49;16.40;78.90
56538;DHT22;42435;53.292;6.000;2022-08-19T02:00:17;16.30;78.70
56538;DHT22;42435;53.292;6.000;2022-08-19T02:02:44;16.40;78.50
56538;DHT22;42435;53.292;6.000;2022-08-19T02:05:10;16.30;78.70
56538;DHT22;42435;53.292;6.000;2022-08-19T02:07:37;16.20;78.80
56538;DHT22;42435;53.292;6.000;2022-08-19T02:10:06;16.20;79.00
56538;DHT22;42435;53.292;6.000;2022-08-19T02:12:32;16.20;78.80
56538;DHT22;42435;53.292;6.000;2022-08-19T02:14:59;16.20;78.70
56538;DHT22;42435;53.292;6.000;2022-08-19T02:17:24;16.10;78.70
56538;DHT22;42435;53.292;6.000;2022-08-19T02:19:50;16.00;79.00
56538;DHT22;42435;53.292;6.000;2022-08-19T02:22:16;16.10;79.30
56538;DHT22;42435;53.292;6.000;2022-08-19T02:24:41;16.10;79.40
56538;DHT22;42435;53.292;6.000;2022-08-19T02:27:07;16.10;79.20
56538;DHT22;42435;53.292;6.000;2022-08-19T02:29:33;16.10;79.10
56538;DHT22;42435;53.292;6.000;2022-08-19T02:31:58;16.00;79.10
56538;DHT22;42435;53.292;6.000;2022-08-19T02:34:24;16.00;79.10
56538;DHT22;42435;53.292;6.000;2022-08-19T02:36:51;16.00;79.30
56538;DHT22;42435;53.292;6.000;2022-08-19T02:39:16;16.00;79.20
56538;DHT22;42435;53.292;6.000;2022-08-19T02:41:42;16.00;79.40
56538;DHT22;42435;53.292;6.000;2022-08-19T02:44:08;16.00;79.40
56538;DHT22;42435;53.292;6.000;2022-08-19T02:46:34;16.00;79.30
56538;DHT22;42435;53.292;6.000;2022-08-19T02:49:02;16.00;79.30
56538;DHT22;42435;53.292;6.000;2022-08-19T02:51:32;16.00;79.70
56538;DHT22;42435;53.292;6.000;2022-08-19T02:53:58;16.00;79.80
56538;DHT22;42435;53.292;6.000;2022-08-19T02:56:26;16.00;79.80
56538;DHT22;42435;53.292;6.000;2022-08-19T02:58:53;16.00;80.00
56538;DHT22;42435;53.292;6.000;2022-08-19T03:01:24;16.10;80.00
56538;DHT22;42435;53.292;6.000;2022-08-19T03:03:50;16.10;80.10
56538;DHT22;42435;53.292;6.000;2022-08-19T03:06:17;16.10;80.30
56538;DHT22;42435;53.292;6.000;2022-08-19T03:08:44;16.10;80.30
56538;DHT22;42435;53.292;6.000;2022-08-19T03:11:20;16.10;80.30
56538;DHT22;42435;53.292;6.000;2022-08-19T03:13:46;16.20;80.40
56538;DHT22;42435;53.292;6.000;2022-08-19T03:16:12;16.10;80.40
56538;DHT22;42435;53.292;6.000;2022-08-19T03:18:38;16.20;80.60
56538;DHT22;42435;53.292;6.000;2022-08-19T03:21:04;16.10;80.60
56538;DHT22;42435;53.292;6.000;2022-08-19T03:23:30;16.20;80.80
56538;DHT22;42435;53.292;6.000;2022-08-19T03:25:56;16.20;80.60
56538;DHT22;42435;53.292;6.000;2022-08-19T03:28:21;16.20;80.60
56538;DHT22;42435;53.292;6.000;2022-08-19T03:31:06;16.20;80.80
56538;DHT22;42435;53.292;6.000;2022-08-19T03:33:35;16.20;80.80
56538;DHT22;42435;53.292;6.000;2022-08-19T03:36:05;16.20;81.00
56538;DHT22;42435;53.292;6.000;2022-08-19T03:38:33;16.20;80.90
56538;DHT22;42435;53.292;6.000;2022-08-19T03:41:02;16.20;80.80
56538;DHT22;42435;53.292;6.000;2022-08-19T03:43:28;16.20;80.90
56538;DHT22;42435;53.292;6.000;2022-08-19T03:46:05;16.20;80.70
56538;DHT22;42435;53.292;6.000;2022-08-19T03:48:31;16.20;81.00
56538;DHT22;42435;53.292;6.000;2022-08-19T03:50:58;16.20;80.90
56538;DHT22;42435;53.292;6.000;2022-08-19T03:53:28;16.20;81.00
56538;DHT22;42435;53.292;6.000;2022-08-19T03:55:55;16.20;81.00
56538;DHT22;42435;53.292;6.000;2022-08-19T03:58:22;16.30;81.10
56538;DHT22;42435;53.292;6.000;2022-08-19T04:00:48;16.30;81.10
56538;DHT22;42435;53.292;6.000;2022-08-19T04:03:14;16.30;81.00
56538;DHT22;42435;53.292;6.000;2022-08-19T04:05:42;16.30;81.00
56538;DHT22;42435;53.292;6.000;2022-08-19T04:08:08;16.30;81.10
56538;DHT22;42435;53.292;6.000;2022-08-19T04:10:37;16.20;81.00
56538;DHT22;42435;53.292;6.000;2022-08-19T04:13:04;16.20;80.90
56538;DHT22;42435;53.292;6.000;2022-08-19T04:15:31;16.20;80.90
56538;DHT22;42435;53.292;6.000;2022-08-19T04:18:01;16.20;80.80
56538;DHT22;42435;53.292;6.000;2022-08-19T04:20:26;16.30;81.00
56538;DHT22;42435;53.292;6.000;2022-08-19T04:22:52;16.30;80.90
56538;DHT22;42435;53.292;6.000;2022-08-19T04:25:18;16.20;80.80
56538;DHT22;42435;53.292;6.000;2022-08-19T04:27:43;16.20;80.90
56538;DHT22;42435;53.292;6.000;2022-08-19T04:30:12;16.20;80.90
56538;DHT22;42435;53.292;6.000;2022-08-19T04:32:38;16.20;81.10
56538;DHT22;42435;53.292;6.000;2022-08-19T04:35:04;16.20;81.30
56538;DHT22;42435;53.292;6.000;2022-08-19T04:37:30;16.20;81.30
56538;DHT22;42435;53.292;6.000;2022-08-19T04:39:59;16.20;81.30
56538;DHT22;42435;53.292;6.000;2022-08-19T04:42:44;16.20;81.30
56538;DHT22;42435;53.292;6.000;2022-08-19T04:45:13;16.70;81.50
56538;DHT22;42435;53.292;6.000;2022-08-19T04:47:43;17.00;80.70
56538;DHT22;42435;53.292;6.000;2022-08-19T04:50:10;17.30;80.00
56538;DHT22;42435;53.292;6.000;2022-08-19T04:52:36;17.50;79.40
56538;DHT22;42435;53.292;6.000;2022-08-19T04:55:03;17.60;78.90
56538;DHT22;42435;53.292;6.000;2022-08-19T04:57:30;17.80;78.60
56538;DHT22;42435;53.292;6.000;2022-08-19T04:59:56;18.00;78.20
56538;DHT22;42435;53.292;6.000;2022-08-19T05:02:22;18.00;77.90
56538;DHT22;42435;53.292;6.000;2022-08-19T05:04:50;18.10;77.70
56538;DHT22;42435;53.292;6.000;2022-08-19T05:07:15;18.20;77.60
56538;DHT22;42435;53.292;6.000;2022-08-19T05:09:41;18.30;77.40
56538;DHT22;42435;53.292;6.000;2022-08-19T05:12:08;18.40;77.30
56538;DHT22;42435;53.292;6.000;2022-08-19T05:14:34;18.50;77.10
56538;DHT22;42435;53.292;6.000;2022-08-19T05:17:01;18.50;76.90
56538;DHT22;42435;53.292;6.000;2022-08-19T05:19:28;18.60;76.60
56538;DHT22;42435;53.292;6.000;2022-08-19T05:22:34;18.30;77.70
56538;DHT22;42435;53.292;6.000;2022-08-19T05:25:23;18.00;78.40
56538;DHT22;42435;53.292;6.000;2022-08-19T05:31:24;17.90;79.30
56538;DHT22;42435;53.292;6.000;2022-08-19T05:33:50;17.70;79.50
56538;DHT22;42435;53.292;6.000;2022-08-19T05:36:15;17.70;79.60
56538;DHT22;42435;53.292;6.000;2022-08-19T05:38:41;17.70;79.70
56538;DHT22;42435;53.292;6.000;2022-08-19T05:41:12;17.70;79.90
56538;DHT22;42435;53.292;6.000;2022-08-19T05:43:38;17.70;80.00
56538;DHT22;42435;53.292;6.000;2022-08-19T05:46:05;17.80;79.90
56538;DHT22;42435;53.292;6.000;2022-08-19T05:48:35;17.80;80.10
56538;DHT22;42435;53.292;6.000;2022-08-19T05:51:07;17.90;80.20
56538;DHT22;42435;53.292;6.000;2022-08-19T05:53:35;17.90;80.20
56538;DHT22;42435;53.292;6.000;2022-08-19T05:56:09;18.00;80.00
56538;DHT22;42435;53.292;6.000;2022-08-19T05:58:36;18.20;80.00
56538;DHT22;42435;53.292;6.000;2022-08-19T06:01:03;18.20;79.80
56538;DHT22;42435;53.292;6.000;2022-08-19T06:03:32;18.30;79.90
56538;DHT22;42435;53.292;6.000;2022-08-19T06:05:59;18.40;80.00
56538;DHT22;42435;53.292;6.000;2022-08-19T06:08:26;18.50;80.00
56538;DHT22;42435;53.292;6.000;2022-08-19T06:10:52;18.70;79.90
56538;DHT22;42435;53.292;6.000;2022-08-19T06:13:18;18.80;79.70
56538;DHT22;42435;53.292;6.000;2022-08-19T06:15:45;19.00;79.50
56538;DHT22;42435;53.292;6.000;2022-08-19T06:18:12;19.20;79.30
56538;DHT22;42435;53.292;6.000;2022-08-19T06:20:37;19.40;78.60
56538;DHT22;42435;53.292;6.000;2022-08-19T06:23:03;19.70;78.00
56538;DHT22;42435;53.292;6.000;2022-08-19T06:25:29;20.20;77.10
56538;DHT22;42435;53.292;6.000;2022-08-19T06:27:55;20.60;76.00
56538;DHT22;42435;53.292;6.000;2022-08-19T06:30:20;20.90;75.30
56538;DHT22;42435;53.292;6.000;2022-08-19T06:32:46;21.30;74.40
56538;DHT22;42435;53.292;6.000;2022-08-19T06:35:11;21.40;74.10
56538;DHT22;42435;53.292;6.000;2022-08-19T06:37:40;21.70;73.60
56538;DHT22;42435;53.292;6.000;2022-08-19T06:40:06;21.90;73.00
56538;DHT22;42435;53.292;6.000;2022-08-19T06:42:34;22.10;72.70
56538;DHT22;42435;53.292;6.000;2022-08-19T06:45:00;22.20;72.40
56538;DHT22;42435;53.292;6.000;2022-08-19T06:47:28;22.40;71.80
56538;DHT22;42435;53.292;6.000;2022-08-19T06:49:56;22.40;71.90
56538;DHT22;42435;53.292;6.000;2022-08-19T06:52:25;22.50;71.80
56538;DHT22;42435;53.292;6.000;2022-08-19T06:54:51;22.70;71.50
56538;DHT22;42435;53.292;6.000;2022-08-19T06:57:16;22.90;71.20
56538;DHT22;42435;53.292;6.000;2022-08-19T06:59:42;23.00;70.60
56538;DHT22;42435;53.292;6.000;2022-08-19T07:02:07;23.10;70.40
56538;DHT22;42435;53.292;6.000;2022-08-19T07:04:34;23.20;70.40
56538;DHT22;42435;53.292;6.000;2022-08-19T07:07:04;23.30;70.40
56538;DHT22;42435;53.292;6.000;2022-08-19T07:09:31;23.40;69.90
56538;DHT22;42435;53.292;6.000;2022-08-19T07:11:57;23.60;69.70
56538;DHT22;42435;53.292;6.000;2022-08-19T07:14:25;23.70;69.30
56538;DHT22;42435;53.292;6.000;2022-08-19T07:16:53;23.80;69.20
56538;DHT22;42435;53.292;6.000;2022-08-19T07:19:20;23.90;68.90
56538;DHT22;42435;53.292;6.000;2022-08-19T07:21:49;24.00;68.60
56538;DHT22;42435;53.292;6.000;2022-08-19T07:24:16;24.20;68.30
56538;DHT22;42435;53.292;6.000;2022-08-19T07:26:43;24.20;68.40
56538;DHT22;42435;53.292;6.000;2022-08-19T07:29:09;24.40;68.30
56538;DHT22;42435;53.292;6.000;2022-08-19T07:31:35;24.50;67.80
56538;DHT22;42435;53.292;6.000;2022-08-19T07:34:06;24.70;67.50
56538;DHT22;42435;53.292;6.000;2022-08-19T07:36:34;24.90;67.10
56538;DHT22;42435;53.292;6.000;2022-08-19T07:39:11;25.00;66.90
56538;DHT22;42435;53.292;6.000;2022-08-19T07:41:37;25.10;66.40
56538;DHT22;42435;53.292;6.000;2022-08-19T07:44:04;25.30;66.20
56538;DHT22;42435;53.292;6.000;2022-08-19T07:46:31;25.40;65.80
56538;DHT22;42435;53.292;6.000;2022-08-19T07:48:57;25.40;65.80
56538;DHT22;42435;53.292;6.000;2022-08-19T07:51:23;25.40;65.70
56538;DHT22;42435;53.292;6.000;2022-08-19T07:53:49;25.40;66.30
56538;DHT22;42435;53.292;6.000;2022-08-19T07:56:17;25.50;65.70
56538;DHT22;42435;53.292;6.000;2022-08-19T07:58:44;25.60;65.30
56538;DHT22;42435;53.292;6.000;2022-08-19T08:01:13;25.70;65.00
56538;DHT22;42435;53.292;6.000;2022-08-19T08:03:39;25.90;64.50
56538;DHT22;42435;53.292;6.000;2022-08-19T08:06:24;25.90;64.40
56538;DHT22;42435;53.292;6.000;2022-08-19T08:09:09;26.00;64.10
56538;DHT22;42435;53.292;6.000;2022-08-19T08:11:47;26.10;63.90
56538;DHT22;42435;53.292;6.000;2022-08-19T08:14:40;26.20;63.80
56538;DHT22;42435;53.292;6.000;2022-08-19T08:17:05;26.30;63.50
56538;DHT22;42435;53.292;6.000;2022-08-19T08:19:31;26.40;62.90
56538;DHT22;42435;53.292;6.000;2022-08-19T08:21:58;26.50;63.00
56538;DHT22;42435;53.292;6.000;2022-08-19T08:24:28;26.60;62.70
56538;DHT22;42435;53.292;6.000;2022-08-19T08:26:54;26.70;63.00
56538;DHT22;42435;53.292;6.000;2022-08-19T08:29:20;26.90;62.30
56538;DHT22;42435;53.292;6.000;2022-08-19T08:31:46;27.10;61.80
56538;DHT22;42435;53.292;6.000;2022-08-19T08:34:12;27.20;61.30
56538;DHT22;42435;53.292;6.000;2022-08-19T08:36:39;27.40;62.00
56538;DHT22;42435;53.292;6.000;2022-08-19T08:39:09;27.50;61.10
56538;DHT22;42435;53.292;6.000;2022-08-19T08:44:50;28.00;60.30
56538;DHT22;42435;53.292;6.000;2022-08-19T08:47:20;28.30;59.60
56538;DHT22;42435;53.292;6.000;2022-08-19T08:49:54;28.40;59.00
56538;DHT22;42435;53.292;6.000;2022-08-19T08:52:43;28.70;57.90
56538;DHT22;42435;53.292;6.000;2022-08-19T08:55:19;28.70;57.50
56538;DHT22;42435;53.292;6.000;2022-08-19T09:00:23;28.90;57.50
56538;DHT22;42435;53.292;6.000;2022-08-19T09:02:50;28.90;57.30
56538;DHT22;42435;53.292;6.000;2022-08-19T09:05:16;29.10;56.80
56538;DHT22;42435;53.292;6.000;2022-08-19T09:07:54;29.40;54.90
56538;DHT22;42435;53.292;6.000;2022-08-19T09:13:00;29.50;56.00
56538;DHT22;42435;53.292;6.000;2022-08-19T09:15:31;29.60;57.00
56538;DHT22;42435;53.292;6.000;2022-08-19T09:18:01;29.60;57.60
56538;DHT22;42435;53.292;6.000;2022-08-19T09:20:27;29.70;58.00
56538;DHT22;42435;53.292;6.000;2022-08-19T09:22:53;29.80;56.90
56538;DHT22;42435;53.292;6.000;2022-08-19T09:25:21;30.30;54.20
56538;DHT22;42435;53.292;6.000;2022-08-19T09:27:49;30.50;54.30
56538;DHT22;42435;53.292;6.000;2022-08-19T09:30:21;30.60;54.20
56538;DHT22;42435;53.292;6.000;2022-08-19T09:32:49;31.20;51.90
56538;DHT22;42435;53.292;6.000;2022-08-19T09:35:18;31.70;50.40
56538;DHT22;42435;53.292;6.000;2022-08-19T09:37:43;31.50;51.00
56538;DHT22;42435;53.292;6.000;2022-08-19T09:40:10;31.40;51.30
56538;DHT22;42435;53.292;6.000;2022-08-19T09:42:36;31.40;51.90
56538;DHT22;42435;53.292;6.000;2022-08-19T09:45:02;31.40;51.50
56538;DHT22;42435;53.292;6.000;2022-08-19T09:47:28;31.40;51.00
56538;DHT22;42435;53.292;6.000;2022-08-19T09:49:54;31.30;51.70
56538;DHT22;42435;53.292;6.000;2022-08-19T09:52:20;31.30;51.80
56538;DHT22;42435;53.292;6.000;2022-08-19T09:54:52;31.40;51.20
56538;DHT22;42435;53.292;6.000;2022-08-19T09:57:18;31.50;51.00
56538;DHT22;42435;53.292;6.000;2022-08-19T09:59:43;31.60;50.90
56538;DHT22;42435;53.292;6.000;2022-08-19T10:02:10;31.70;50.70
56538;DHT22;42435;53.292;6.000;2022-08-19T10:04:36;31.80;50.50
56538;DHT22;42435;53.292;6.000;2022-08-19T10:07:20;31.90;50.20
56538;DHT22;42435;53.292;6.000;2022-08-19T10:09:47;31.90;50.10
56538;DHT22;42435;53.292;6.000;2022-08-19T10:12:12;31.90;49.90
56538;DHT22;42435;53.292;6.000;2022-08-19T10:14:39;32.00;49.00
56538;DHT22;42435;53.292;6.000;2022-08-19T10:17:05;31.90;49.20
56538;DHT22;42435;53.292;6.000;2022-08-19T10:19:30;31.70;49.60
56538;DHT22;42435;53.292;6.000;2022-08-19T10:22:05;31.40;49.50
56538;DHT22;42435;53.292;6.000;2022-08-19T10:24:33;31.20;49.70
56538;DHT22;42435;53.292;6.000;2022-08-19T10:27:00;31.00;50.50
56538;DHT22;42435;53.292;6.000;2022-08-19T10:29:26;30.80;50.90
56538;DHT22;42435;53.292;6.000;2022-08-19T10:31:53;30.60;51.30
56538;DHT22;42435;53.292;6.000;2022-08-19T10:34:19;30.70;51.30
56538;DHT22;42435;53.292;6.000;2022-08-19T10:36:44;30.90;51.20
56538;DHT22;42435;53.292;6.000;2022-08-19T10:39:10;31.10;50.80
56538;DHT22;42435;53.292;6.000;2022-08-19T10:41:39;31.40;50.40
56538;DHT22;42435;53.292;6.000;2022-08-19T10:44:07;31.50;49.80
56538;DHT22;42435;53.292;6.000;2022-08-19T10:46:36;31.40;49.90
56538;DHT22;42435;53.292;6.000;2022-08-19T10:49:04;31.30;50.30
56538;DHT22;42435;53.292;6.000;2022-08-19T10:51:31;31.30;50.30
56538;DHT22;42435;53.292;6.000;2022-08-19T10:54:16;31.40;50.20
56538;DHT22;42435;53.292;6.000;2022-08-19T10:56:42;31.40;49.60
56538;DHT22;42435;53.292;6.000;2022-08-19T10:59:22;31.50;49.30
56538;DHT22;42435;53.292;6.000;2022-08-19T11:01:49;31.80;49.00
56538;DHT22;42435;53.292;6.000;2022-08-19T11:04:15;32.20;46.90
56538;DHT22;42435;53.292;6.000;2022-08-19T11:06:44;32.60;44.90
56538;DHT22;42435;53.292;6.000;2022-08-19T11:09:17;32.40;46.20
56538;DHT22;42435;53.292;6.000;2022-08-19T11:11:43;32.20;46.80
56538;DHT22;42435;53.292;6.000;2022-08-19T11:14:12;31.90;47.70
56538;DHT22;42435;53.292;6.000;2022-08-19T11:16:39;31.50;48.60
56538;DHT22;42435;53.292;6.000;2022-08-19T11:19:06;31.30;49.00
56538;DHT22;42435;53.292;6.000;2022-08-19T11:21:36;31.10;49.60
56538;DHT22;42435;53.292;6.000;2022-08-19T11:24:05;31.00;49.80
56538;DHT22;42435;53.292;6.000;2022-08-19T11:26:32;30.90;49.80
56538;DHT22;42435;53.292;6.000;2022-08-19T11:28:59;30.80;50.20
56538;DHT22;42435;53.292;6.000;2022-08-19T11:31:30;30.60;50.60
56538;DHT22;42435;53.292;6.000;2022-08-19T11:33:58;30.40;50.70
56538;DHT22;42435;53.292;6.000;2022-08-19T11:36:25;30.20;51.30
56538;DHT22;42435;53.292;6.000;2022-08-19T11:38:51;30.30;50.50
56538;DHT22;42435;53.292;6.000;2022-08-19T11:41:19;30.30;50.30
56538;DHT22;42435;53.292;6.000;2022-08-19T11:43:45;30.00;51.40
56538;DHT22;42435;53.292;6.000;2022-08-19T11:46:11;29.70;52.30
56538;DHT22;42435;53.292;6.000;2022-08-19T11:48:38;29.50;52.80
56538;DHT22;42435;53.292;6.000;2022-08-19T11:51:06;29.30;52.90
56538;DHT22;42435;53.292;6.000;2022-08-19T11:53:33;29.50;51.40
56538;DHT22;42435;53.292;6.000;2022-08-19T11:55:59;29.20;52.20
56538;DHT22;42435;53.292;6.000;2022-08-19T11:58:24;29.10;52.70
56538;DHT22;42435;53.292;6.000;2022-08-19T12:00:51;28.90;53.10
56538;DHT22;42435;53.292;6.000;2022-08-19T12:03:17;28.90;53.00
56538;DHT22;42435;53.292;6.000;2022-08-19T12:05:43;28.90;53.00
56538;DHT22;42435;53.292;6.000;2022-08-19T12:08:09;28.90;53.20
56538;DHT22;42435;53.292;6.000;2022-08-19T12:10:35;28.90;53.10
56538;DHT22;42435;53.292;6.000;2022-08-19T12:13:01;29.00;53.10
56538;DHT22;42435;53.292;6.000;2022-08-19T12:15:27;29.00;53.10
56538;DHT22;42435;53.292;6.000;2022-08-19T12:17:54;29.00;53.40
56538;DHT22;42435;53.292;6.000;2022-08-19T12:20:23;29.00;53.50
56538;DHT22;42435;53.292;6.000;2022-08-19T12:22:49;29.10;53.70
56538;DHT22;42435;53.292;6.000;2022-08-19T12:25:14;29.10;53.80
56538;DHT22;42435;53.292;6.000;2022-08-19T12:27:40;29.00;54.00
56538;DHT22;42435;53.292;6.000;2022-08-19T12:30:08;28.90;54.30
56538;DHT22;42435;53.292;6.000;2022-08-19T12:32:34;28.70;54.50
56538;DHT22;42435;53.292;6.000;2022-08-19T12:35:00;28.60;54.70
56538;DHT22;42435;53.292;6.000;2022-08-19T12:37:26;28.50;54.40
56538;DHT22;42435;53.292;6.000;2022-08-19T12:39:51;28.50;54.40
56538;DHT22;42435;53.292;6.000;2022-08-19T12:42:17;28.40;54.50
56538;DHT22;42435;53.292;6.000;2022-08-19T12:44:43;28.40;54.70
56538;DHT22;42435;53.292;6.000;2022-08-19T12:47:11;28.50;54.80
56538;DHT22;42435;53.292;6.000;2022-08-19T12:49:39;28.60;54.80
56538;DHT22;42435;53.292;6.000;2022-08-19T12:52:07;28.60;55.00
56538;DHT22;42435;53.292;6.000;2022-08-19T12:54:34;28.60;54.70
56538;DHT22;42435;53.292;6.000;2022-08-19T12:57:00;28.80;54.80
56538;DHT22;42435;53.292;6.000;2022-08-19T12:59:29;29.00;54.70
56538;DHT22;42435;53.292;6.000;2022-08-19T13:01:55;29.40;54.10
56538;DHT22;42435;53.292;6.000;2022-08-19T13:04:20;29.60;54.10
56538;DHT22;42435;53.292;6.000;2022-08-19T13:06:46;29.90;53.60
56538;DHT22;42435;53.292;6.000;2022-08-19T13:09:12;30.10;53.30
56538;DHT22;42435;53.292;6.000;2022-08-19T13:11:37;30.10;52.80
56538;DHT22;42435;53.292;6.000;2022-08-19T13:14:03;30.10;52.80
56538;DHT22;42435;53.292;6.000;2022-08-19T13:16:29;30.00;53.10
56538;DHT22;42435;53.292;6.000;2022-08-19T13:18:56;29.90;53.40
56538;DHT22;42435;53.292;6.000;2022-08-19T13:21:25;29.80;53.60
56538;DHT22;42435;53.292;6.000;2022-08-19T13:23:51;29.60;53.70
56538;DHT22;42435;53.292;6.000;2022-08-19T13:26:18;29.50;54.10
56538;DHT22;42435;53.292;6.000;2022-08-19T13:28:45;29.40;54.40
56538;DHT22;42435;53.292;6.000;2022-08-19T13:31:31;29.40;54.70
56538;DHT22;42435;53.292;6.000;2022-08-19T13:34:26;29.20;55.10
56538;DHT22;42435;53.292;6.000;2022-08-19T13:36:52;29.10;55.10
56538;DHT22;42435;53.292;6.000;2022-08-19T13:39:18;29.00;55.20
56538;DHT22;42435;53.292;6.000;2022-08-19T13:41:46;28.90;55.20
56538;DHT22;42435;53.292;6.000;2022-08-19T13:44:14;28.90;55.60
56538;DHT22;42435;53.292;6.000;2022-08-19T13:46:41;28.90;55.50
56538;DHT22;42435;53.292;6.000;2022-08-19T13:49:10;28.80;55.20
56538;DHT22;42435;53.292;6.000;2022-08-19T13:51:36;28.60;55.30
56538;DHT22;42435;53.292;6.000;2022-08-19T13:54:02;28.60;55.60
56538;DHT22;42435;53.292;6.000;2022-08-19T13:56:28;28.50;55.60
56538;DHT22;42435;53.292;6.000;2022-08-19T13:58:53;28.40;55.90
56538;DHT22;42435;53.292;6.000;2022-08-19T14:01:23;28.40;56.30
56538;DHT22;42435;53.292;6.000;2022-08-19T14:03:49;28.60;55.60
56538;DHT22;42435;53.292;6.000;2022-08-19T14:06:15;28.60;55.30
56538;DHT22;42435;53.292;6.000;2022-08-19T14:08:42;28.80;55.40
56538;DHT22;42435;53.292;6.000;2022-08-19T14:11:09;28.90;54.90
56538;DHT22;42435;53.292;6.000;2022-08-19T14:13:34;28.90;55.00
56538;DHT22;42435;53.292;6.000;2022-08-19T14:16:00;28.90;55.10
56538;DHT22;42435;53.292;6.000;2022-08-19T14:18:26;28.90;54.60
56538;DHT22;42435;53.292;6.000;2022-08-19T14:20:52;28.80;54.70
56538;DHT22;42435;53.292;6.000;2022-08-19T14:23:17;28.70;55.20
56538;DHT22;42435;53.292;6.000;2022-08-19T14:25:43;28.50;55.50
56538;DHT22;42435;53.292;6.000;2022-08-19T14:28:09;28.50;55.50
56538;DHT22;42435;53.292;6.000;2022-08-19T14:30:36;28.40;55.40
56538;DHT22;42435;53.292;6.000;2022-08-19T14:33:04;28.30;55.50
56538;DHT22;42435;53.292;6.000;2022-08-19T14:35:32;28.30;55.60
56538;DHT22;42435;53.292;6.000;2022-08-19T14:38:03;28.40;56.00
56538;DHT22;42435;53.292;6.000;2022-08-19T14:40:30;28.60;55.60
56538;DHT22;42435;53.292;6.000;2022-08-19T14:42:59;28.90;55.10
56538;DHT22;42435;53.292;6.000;2022-08-19T14:45:27;29.30;54.40
56538;DHT22;42435;53.292;6.000;2022-08-19T14:47:53;29.60;53.70
56538;DHT22;42435;53.292;6.000;2022-08-19T14:50:19;29.70;53.40
56538;DHT22;42435;53.292;6.000;2022-08-19T14:52:46;29.90;53.00
56538;DHT22;42435;53.292;6.000;2022-08-19T14:55:14;30.00;52.90
56538;DHT22;42435;53.292;6.000;2022-08-19T14:57:43;29.90;52.60
56538;DHT22;42435;53.292;6.000;2022-08-19T15:00:09;29.90;52.60
56538;DHT22;42435;53.292;6.000;2022-08-19T15:02:39;29.90;52.80
56538;DHT22;42435;53.292;6.000;2022-08-19T15:05:05;29.80;52.80
56538;DHT22;42435;53.292;6.000;2022-08-19T15:07:30;29.60;52.90
56538;DHT22;42435;53.292;6.000;2022-08-19T15:09:56;29.40;53.30
56538;DHT22;42435;53.292;6.000;2022-08-19T15:12:22;29.30;53.90
56538;DHT22;42435;53.292;6.000;2022-08-19T15:14:48;29.30;53.80
56538;DHT22;42435;53.292;6.000;2022-08-19T15:17:16;29.40;54.20
56538;DHT22;42435;53.292;6.000;2022-08-19T15:19:41;29.50;54.00
56538;DHT22;42435;53.292;6.000;2022-08-19T15:22:07;29.50;54.10
56538;DHT22;42435;53.292;6.000;2022-08-19T15:24:33;29.50;54.20
56538;DHT22;42435;53.292;6.000;2022-08-19T15:27:01;29.50;54.30
56538;DHT22;42435;53.292;6.000;2022-08-19T15:29:27;29.50;54.40
56538;DHT22;42435;53.292;6.000;2022-08-19T15:31:53;29.50;54.50
56538;DHT22;42435;53.292;6.000;2022-08-19T15:34:23;29.50;54.20
56538;DHT22;42435;53.292;6.000;2022-08-19T15:36:53;29.40;54.20
56538;DHT22;42435;53.292;6.000;2022-08-19T15:39:19;29.30;54.70
56538;DHT22;42435;53.292;6.000;2022-08-19T15:41:45;29.20;54.80
56538;DHT22;42435;53.292;6.000;2022-08-19T15:44:15;29.30;54.80
56538;DHT22;42435;53.292;6.000;2022-08-19T15:46:44;29.40;54.90